createdAt,value
2023-05-18T00:02:31.418Z,101092.94
2023-05-18T00:05:34.639Z,101092.94
2023-05-18T00:08:38.906Z,101094.63
2023-05-18T00:11:41.137Z,101097.03
2023-05-18T00:14:42.898Z,101089.50
2023-05-18T00:17:45.668Z,101086.00
2023-05-18T00:20:48.753Z,101092.91
2023-05-18T00:23:52.306Z,101093.31
2023-05-18T00:26:54.210Z,101086.69
2023-05-18T00:29:56.061Z,101092.00
2023-05-18T00:32:57.864Z,101085.56
2023-05-18T00:35:59.723Z,101087.22
2023-05-18T00:39:04.535Z,101081.06
2023-05-18T00:42:07.470Z,101080.47
2023-05-18T00:45:10.080Z,101084.44
2023-05-18T00:48:12.059Z,101080.09
2023-05-18T00:51:14.484Z,101080.31
2023-05-18T00:54:17.755Z,101081.72
2023-05-18T00:57:20.213Z,101083.28
2023-05-18T01:00:23.165Z,101079.34
2023-05-18T01:03:26.271Z,101079.28
2023-05-18T01:06:32.784Z,101076.88
2023-05-18T01:09:36.222Z,101080.81
2023-05-18T01:12:43.722Z,101083.03
2023-05-18T01:15:54.431Z,101087.03
2023-05-18T01:19:05.592Z,101077.00
2023-05-18T01:22:13.964Z,101076.81
2023-05-18T01:25:23.395Z,101075.47
2023-05-18T01:28:30.377Z,101083.50
2023-05-18T01:31:35.238Z,101081.97
2023-05-18T01:34:38.248Z,101080.84
2023-05-18T01:37:40.217Z,101078.84
2023-05-18T01:40:53.044Z,101074.94
2023-05-18T01:44:04.716Z,101066.03
2023-05-18T01:47:11.185Z,101075.06
2023-05-18T01:50:16.934Z,101079.94
2023-05-18T01:53:25.063Z,101074.28
2023-05-18T01:56:27.631Z,101069.34
2023-05-18T01:59:31.061Z,101071.22
2023-05-18T02:02:33.401Z,101066.34
2023-05-18T02:05:35.582Z,101073.44
2023-05-18T02:08:38.847Z,101060.75
2023-05-18T02:11:41.374Z,101066.59
2023-05-18T02:14:44.400Z,101069.03
2023-05-18T02:17:46.165Z,101065.09
2023-05-18T02:20:49.146Z,101069.44
2023-05-18T02:23:50.907Z,101071.50
2023-05-18T02:26:53.092Z,101066.09
2023-05-18T02:29:56.907Z,101066.72
2023-05-18T02:32:59.258Z,101066.88
2023-05-18T02:36:02.921Z,101065.53
2023-05-18T02:39:04.926Z,101060.41
2023-05-18T02:42:07.554Z,101063.34
2023-05-18T02:45:11.278Z,101066.44
2023-05-18T02:48:15.025Z,101074.09
2023-05-18T02:51:17.320Z,101056.59
2023-05-18T02:54:19.847Z,101053.28
2023-05-18T02:57:22.372Z,101052.28
2023-05-18T03:00:36.401Z,101061.97
2023-05-18T03:03:39.109Z,101055.44
2023-05-18T03:06:46.246Z,101055.22
2023-05-18T03:09:48.593Z,101050.50
2023-05-18T03:12:52.346Z,101059.03
2023-05-18T03:15:56.709Z,101062.38
2023-05-18T03:18:59.119Z,101065.44
2023-05-18T03:22:06.335Z,101063.34
2023-05-18T03:25:09.230Z,101065.47
2023-05-18T03:28:11.428Z,101059.25
2023-05-18T03:31:18.252Z,101069.84
2023-05-18T03:34:21.277Z,101067.97
2023-05-18T03:37:23.294Z,101064.13
2023-05-18T03:40:26.061Z,101076.59
2023-05-18T03:43:29.575Z,101076.53
2023-05-18T03:46:33.828Z,101081.78
2023-05-18T03:49:36.413Z,101080.63
2023-05-18T03:52:39.507Z,101079.16
2023-05-18T03:55:43.187Z,101073.13
2023-05-18T03:58:45.641Z,101082.69
2023-05-18T04:01:53.736Z,101084.44
2023-05-18T04:04:58.020Z,101092.97
2023-05-18T04:08:02.270Z,101088.13
2023-05-18T04:11:06.911Z,101096.00
2023-05-18T04:14:09.264Z,101094.63
2023-05-18T04:17:12.604Z,101094.91
2023-05-18T04:20:14.865Z,101097.91
2023-05-18T04:23:17.420Z,101102.34
2023-05-18T04:26:20.304Z,101099.81
2023-05-18T04:29:22.471Z,101107.44
2023-05-18T04:32:28.282Z,101112.13
2023-05-18T04:35:31.984Z,101106.94
2023-05-18T04:38:34.655Z,101110.44
2023-05-18T04:41:38.352Z,101114.47
2023-05-18T04:44:40.241Z,101118.03
2023-05-18T04:47:51.354Z,101117.88
2023-05-18T04:50:56.143Z,101116.13
2023-05-18T04:53:57.918Z,101116.88
2023-05-18T04:57:03.491Z,101117.63
2023-05-18T05:00:09.821Z,101126.91
2023-05-18T05:03:13.085Z,101133.06
2023-05-18T05:06:15.944Z,101131.22
2023-05-18T05:09:18.002Z,101132.13
2023-05-18T05:12:19.882Z,101132.81
2023-05-18T05:15:21.962Z,101133.75
2023-05-18T05:18:26.927Z,101136.66
2023-05-18T05:21:29.023Z,101128.56
2023-05-18T05:24:30.977Z,101132.28
2023-05-18T05:27:32.768Z,101125.03
2023-05-18T05:30:34.477Z,101127.97
2023-05-18T05:33:37.796Z,101126.69
2023-05-18T05:36:40.183Z,101122.84
2023-05-18T05:39:42.276Z,101133.56
2023-05-18T05:42:44.737Z,101125.47
2023-05-18T05:45:47.743Z,101145.91
2023-05-18T05:48:51.092Z,101143.81
2023-05-18T05:51:53.108Z,101141.59
2023-05-18T05:54:56.305Z,101149.19
2023-05-18T05:57:58.363Z,101138.91
2023-05-18T06:01:00.286Z,101147.28
2023-05-18T06:04:06.468Z,101143.66
2023-05-18T06:07:08.299Z,101142.78
2023-05-18T06:10:11.460Z,101149.75
2023-05-18T06:13:19.661Z,101147.22
2023-05-18T06:16:27.395Z,101139.88
2023-05-18T06:19:31.118Z,101149.38
2023-05-18T06:22:33.271Z,101148.84
2023-05-18T06:25:53.319Z,101154.59
2023-05-18T06:29:10.127Z,101151.81
2023-05-18T06:32:26.873Z,101161.28
2023-05-18T06:35:31.568Z,101162.56
2023-05-18T06:38:33.613Z,101168.16
2023-05-18T06:41:35.742Z,101169.75
2023-05-18T06:44:38.104Z,101162.13
2023-05-18T06:47:46.261Z,101166.00
2023-05-18T06:50:49.634Z,101168.13
2023-05-18T06:53:51.590Z,101175.25
2023-05-18T06:56:53.779Z,101168.06
2023-05-18T06:59:56.191Z,101171.13
2023-05-18T07:02:58.084Z,101172.72
2023-05-18T07:06:01.980Z,101162.06
2023-05-18T07:09:04.497Z,101162.00
2023-05-18T07:12:07.323Z,101170.34
2023-05-18T07:15:11.481Z,101164.66
2023-05-18T07:18:13.203Z,101167.34
2023-05-18T07:21:16.627Z,101160.59
2023-05-18T07:24:18.751Z,101154.00
2023-05-18T07:27:20.747Z,101162.38
2023-05-18T07:30:23.040Z,101156.94
2023-05-18T07:33:24.994Z,101155.56
2023-05-18T07:36:28.688Z,101157.59
2023-05-18T07:39:30.605Z,101155.91
2023-05-18T07:42:33.936Z,101150.38
2023-05-18T07:45:35.802Z,101141.69
2023-05-18T07:48:40.386Z,101153.94
2023-05-18T07:51:44.551Z,101146.19
2023-05-18T07:54:46.562Z,101151.13
2023-05-18T07:57:49.549Z,101148.97
2023-05-18T08:00:51.653Z,101142.41
2023-05-18T08:03:53.954Z,101144.00
2023-05-18T08:07:00.491Z,101151.69
2023-05-18T08:10:02.491Z,101160.38
2023-05-18T08:13:04.354Z,101154.47
2023-05-18T08:16:11.788Z,101145.34
2023-05-18T08:19:14.791Z,101147.59
2023-05-18T08:22:18.161Z,101148.50
2023-05-18T08:25:20.801Z,101145.28
2023-05-18T08:28:23.400Z,101140.22
2023-05-18T08:31:26.312Z,101137.13
2023-05-18T08:34:30.198Z,101132.88
2023-05-18T08:37:33.382Z,101133.25
2023-05-18T08:40:43.665Z,101128.97
2023-05-18T08:43:48.925Z,101124.69
2023-05-18T08:46:51.470Z,101135.91
2023-05-18T08:49:56.433Z,101118.13
2023-05-18T08:53:01.417Z,101116.56
2023-05-18T08:56:03.768Z,101121.75
2023-05-18T08:59:08.960Z,101120.47
2023-05-18T09:02:11.503Z,101112.63
2023-05-18T09:05:15.330Z,101119.16
2023-05-18T09:08:18.943Z,101115.50
2023-05-18T09:11:22.143Z,101110.00
2023-05-18T09:14:26.077Z,101108.59
2023-05-18T09:17:28.227Z,101114.09
2023-05-18T09:20:30.473Z,101113.75
2023-05-18T09:23:34.083Z,101115.09
2023-05-18T09:26:56.055Z,101103.41
2023-05-18T09:29:59.127Z,101097.47
2023-05-18T09:33:02.679Z,101111.66
2023-05-18T09:36:05.065Z,101112.19
2023-05-18T09:39:11.753Z,101098.03
2023-05-18T09:42:13.543Z,101100.38
2023-05-18T09:45:17.666Z,101097.66
2023-05-18T09:48:19.512Z,101096.50
2023-05-18T09:51:25.011Z,101090.94
2023-05-18T09:54:28.666Z,101086.50
2023-05-18T09:57:30.645Z,101084.97
2023-05-18T10:00:32.861Z,101083.91
2023-05-18T10:03:40.369Z,101082.75
2023-05-18T10:06:49.432Z,101080.72
2023-05-18T10:10:01.630Z,101087.00
2023-05-18T10:13:04.484Z,101093.69
2023-05-18T10:16:08.349Z,101085.50
2023-05-18T10:19:12.781Z,101089.63
2023-05-18T10:22:16.137Z,101080.03
2023-05-18T10:25:22.585Z,101080.03
2023-05-18T10:28:28.821Z,101078.84
2023-05-18T10:31:32.860Z,101082.38
2023-05-18T10:34:36.278Z,101076.91
2023-05-18T10:37:42.262Z,101082.00
2023-05-18T10:40:47.946Z,101079.09
2023-05-18T10:43:50.132Z,101085.72
2023-05-18T10:46:53.275Z,101083.41
2023-05-18T10:49:55.393Z,101085.91
2023-05-18T10:52:59.109Z,101087.75
2023-05-18T10:56:02.597Z,101075.22
2023-05-18T10:59:05.194Z,101082.69
2023-05-18T11:02:08.118Z,101065.41
2023-05-18T11:05:11.253Z,101063.28
2023-05-18T11:08:15.116Z,101037.16
2023-05-18T11:11:23.366Z,101054.75
2023-05-18T11:14:27.379Z,101047.91
2023-05-18T11:17:30.184Z,101049.25
2023-05-18T11:20:32.404Z,101048.09
2023-05-18T11:23:34.425Z,101049.53
2023-05-18T11:26:39.909Z,101035.06
2023-05-18T11:29:45.175Z,101042.97
2023-05-18T11:32:51.558Z,101052.03
2023-05-18T11:36:06.915Z,101043.00
2023-05-18T11:39:08.747Z,101039.53
2023-05-18T11:42:14.462Z,101046.34
2023-05-18T11:45:17.467Z,101036.69
2023-05-18T11:48:21.411Z,101044.25
2023-05-18T11:51:26.413Z,101032.75
2023-05-18T11:54:28.727Z,101025.09
2023-05-18T11:57:40.446Z,101028.25
2023-05-18T12:00:43.236Z,101018.38
2023-05-18T12:03:48.397Z,101032.66
2023-05-18T12:06:51.946Z,101036.31
2023-05-18T12:09:57.761Z,101031.09
2023-05-18T12:13:02.450Z,101018.66
2023-05-18T12:16:05.178Z,101030.81
2023-05-18T12:19:07.871Z,101011.41
2023-05-18T12:22:11.162Z,101019.81
2023-05-18T12:25:12.924Z,101020.63
2023-05-18T12:28:17.152Z,101010.38
2023-05-18T12:31:19.178Z,101011.69
2023-05-18T12:34:20.981Z,101011.19
2023-05-18T12:37:33.880Z,101019.50
2023-05-18T12:40:46.503Z,101003.53
2023-05-18T12:43:52.002Z,101010.19
2023-05-18T12:46:55.445Z,101009.44
2023-05-18T12:50:00.932Z,101003.63
2023-05-18T12:53:02.948Z,100997.56
2023-05-18T12:56:09.751Z,100996.44
2023-05-18T12:59:18.128Z,100992.00
2023-05-18T13:02:33.816Z,100993.25
2023-05-18T13:05:35.891Z,100994.22
2023-05-18T13:08:37.758Z,100981.03
2023-05-18T13:11:40.137Z,100984.84
2023-05-18T13:14:43.489Z,100976.31
2023-05-18T13:17:50.017Z,100972.41
2023-05-18T13:20:53.594Z,100972.41
2023-05-18T13:23:55.432Z,100971.81
2023-05-18T13:26:57.238Z,100973.47
2023-05-18T13:30:00.654Z,100972.03
2023-05-18T13:33:03.242Z,100963.00
2023-05-18T13:36:05.366Z,100957.31
2023-05-18T13:39:07.271Z,100956.97
2023-05-18T13:42:09.322Z,100953.38
2023-05-18T13:45:15.915Z,100958.72
2023-05-18T13:48:18.212Z,100965.13
2023-05-18T13:51:20.078Z,100962.47
2023-05-18T13:54:22.217Z,100962.25
2023-05-18T13:57:26.188Z,100955.66
2023-05-18T14:00:29.433Z,100946.97
2023-05-18T14:03:33.976Z,100938.13
2023-05-18T14:06:36.143Z,100936.22
2023-05-18T14:09:38.056Z,100932.91
2023-05-18T14:12:42.465Z,100930.84
2023-05-18T14:15:45.980Z,100946.34
2023-05-18T14:18:47.692Z,100934.28
2023-05-18T14:21:49.676Z,100928.56
2023-05-18T14:24:51.610Z,100919.28
2023-05-18T14:27:53.379Z,100919.75
2023-05-18T14:30:56.551Z,100922.97
2023-05-18T14:33:58.440Z,100925.91
2023-05-18T14:37:00.216Z,100915.84
2023-05-18T14:40:02.198Z,100910.72
2023-05-18T14:43:04.009Z,100912.47
2023-05-18T14:46:08.923Z,100921.28
2023-05-18T14:49:11.113Z,100911.28
2023-05-18T14:52:12.928Z,100908.69
2023-05-18T14:55:15.116Z,100931.03
2023-05-18T14:58:17.249Z,100907.72
2023-05-18T15:01:20.608Z,100911.56
2023-05-18T15:04:22.506Z,100903.88
2023-05-18T15:07:24.239Z,100906.47
2023-05-18T15:10:26.189Z,100902.41
2023-05-18T15:13:27.874Z,100895.50
2023-05-18T15:16:31.112Z,100900.81
2023-05-18T15:19:33.431Z,100895.81
2023-05-18T15:22:35.716Z,100890.72
2023-05-18T15:25:37.869Z,100894.22
2023-05-18T15:28:41.032Z,100900.91
2023-05-18T15:31:44.211Z,100888.59
2023-05-18T15:34:45.970Z,100895.53
2023-05-18T15:37:47.756Z,100887.59
2023-05-18T15:40:50.441Z,100885.59
2023-05-18T15:43:52.425Z,100878.88
2023-05-18T15:46:55.600Z,100871.34
2023-05-18T15:49:58.098Z,100882.94
2023-05-18T15:53:00.183Z,100872.84
2023-05-18T15:56:02.456Z,100876.66
2023-05-18T15:59:06.864Z,100881.72
2023-05-18T16:02:10.165Z,100873.06
2023-05-18T16:05:12.018Z,100871.91
2023-05-18T16:08:13.863Z,100873.94
2023-05-18T16:11:15.520Z,100859.00
2023-05-18T16:14:17.214Z,100860.59
2023-05-18T16:17:20.486Z,100871.06
2023-05-18T16:20:22.322Z,100872.50
2023-05-18T16:23:24.206Z,100875.81
2023-05-18T16:26:26.325Z,100878.22
2023-05-18T16:29:27.982Z,100875.50
2023-05-18T16:32:31.653Z,100884.94
2023-05-18T16:35:33.390Z,100870.94
2023-05-18T16:38:37.316Z,100883.56
2023-05-18T16:41:39.072Z,100881.41
2023-05-18T16:44:41.885Z,100880.66
2023-05-18T16:47:45.078Z,100873.22
2023-05-18T16:50:47.163Z,100884.78
2023-05-18T16:53:50.771Z,100882.66
2023-05-18T16:56:52.653Z,100876.03
2023-05-18T16:59:54.428Z,100875.09
2023-05-18T17:02:57.553Z,100877.94
2023-05-18T17:05:59.452Z,100881.41
2023-05-18T17:09:01.291Z,100881.19
2023-05-18T17:12:03.824Z,100889.91
2023-05-18T17:15:06.461Z,100891.91
2023-05-18T17:18:09.785Z,100885.81
2023-05-18T17:21:11.702Z,100886.84
2023-05-18T17:24:13.723Z,100887.47
2023-05-18T17:27:15.684Z,100883.97
2023-05-18T17:30:17.579Z,100884.22
2023-05-18T17:33:20.758Z,100884.22
2023-05-18T17:36:22.610Z,100876.88
2023-05-18T17:39:24.865Z,100875.75
2023-05-18T17:42:26.683Z,100869.97
2023-05-18T17:45:28.565Z,100879.28
2023-05-18T17:48:31.673Z,100880.88
2023-05-18T17:51:33.533Z,100875.66
2023-05-18T17:54:35.411Z,100875.25
2023-05-18T17:57:46.504Z,100879.31
2023-05-18T18:00:48.592Z,100888.00
2023-05-18T18:03:51.863Z,100886.81
2023-05-18T18:06:54.649Z,100892.94
2023-05-18T18:09:56.508Z,100883.94
2023-05-18T18:12:58.322Z,100888.22
2023-05-18T18:16:00.058Z,100894.09
2023-05-18T18:19:04.043Z,100887.94
2023-05-18T18:22:06.080Z,100889.88
2023-05-18T18:25:08.490Z,100887.16
2023-05-18T18:28:14.601Z,100891.84
2023-05-18T18:31:16.776Z,100889.41
2023-05-18T18:34:19.826Z,100893.84
2023-05-18T18:37:21.706Z,100885.22
2023-05-18T18:40:23.673Z,100892.88
2023-05-18T18:43:25.459Z,100898.50
2023-05-18T18:46:27.282Z,100901.47
2023-05-18T18:49:30.422Z,100901.66
2023-05-18T18:52:32.613Z,100901.00
2023-05-18T18:55:34.743Z,100909.72
2023-05-18T18:58:36.651Z,100908.81
2023-05-18T19:01:38.523Z,100913.47
2023-05-18T19:04:41.785Z,100919.59
2023-05-18T19:07:44.743Z,100912.38
2023-05-18T19:10:46.625Z,100922.53
2023-05-18T19:13:48.920Z,100925.69
2023-05-18T19:16:50.825Z,100926.19
2023-05-18T19:19:54.356Z,100930.19
2023-05-18T19:22:56.229Z,100933.56
2023-05-18T19:25:59.429Z,100933.91
2023-05-18T19:29:02.954Z,100942.59
2023-05-18T19:32:06.645Z,100945.38
2023-05-18T19:35:09.996Z,100939.53
2023-05-18T19:38:11.848Z,100947.56
2023-05-18T19:41:14.467Z,100948.78
2023-05-18T19:44:16.666Z,100943.25
2023-05-18T19:47:18.572Z,100951.81
2023-05-18T19:50:22.724Z,100947.72
2023-05-18T19:53:24.656Z,100952.53
2023-05-18T19:56:26.723Z,100948.28
2023-05-18T19:59:29.559Z,100959.16
2023-05-18T20:02:31.313Z,100956.84
2023-05-18T20:05:34.754Z,100957.38
2023-05-18T20:08:36.825Z,100964.63
2023-05-18T20:11:39.349Z,100963.84
2023-05-18T20:14:43.421Z,100962.47
2023-05-18T20:17:45.522Z,100960.00
2023-05-18T20:20:49.901Z,100961.38
2023-05-18T20:23:51.765Z,100966.97
2023-05-18T20:26:53.475Z,100961.25
2023-05-18T20:29:56.231Z,100965.41
2023-05-18T20:33:03.960Z,100967.13
2023-05-18T20:36:09.109Z,100965.88
2023-05-18T20:39:11.265Z,100969.25
2023-05-18T20:42:14.749Z,100975.28
2023-05-18T20:45:17.716Z,100971.78
2023-05-18T20:48:26.469Z,100977.63
2023-05-18T20:51:31.493Z,100968.81
2023-05-18T20:54:33.403Z,100967.91
2023-05-18T20:57:35.222Z,100974.56
2023-05-18T21:00:37.687Z,100970.66
2023-05-18T21:03:42.472Z,100975.00
2023-05-18T21:06:45.827Z,100977.78
2023-05-18T21:09:47.973Z,100976.41
2023-05-18T21:12:51.029Z,100972.53
2023-05-18T21:15:53.034Z,100971.75
2023-05-18T21:18:54.940Z,100971.44
2023-05-18T21:21:58.092Z,100972.69
2023-05-18T21:25:00.261Z,100973.00
2023-05-18T21:28:02.193Z,100967.59
2023-05-18T21:31:07.483Z,100970.22
2023-05-18T21:34:09.468Z,100972.81
2023-05-18T21:37:12.723Z,100972.19
2023-05-18T21:40:14.564Z,100967.13
2023-05-18T21:43:16.302Z,100973.78
2023-05-18T21:46:18.103Z,100964.03
2023-05-18T21:49:20.310Z,100966.19
2023-05-18T21:52:26.073Z,100962.16
2023-05-18T21:55:28.520Z,100960.78
2023-05-18T21:58:30.473Z,100959.59
2023-05-18T22:01:32.355Z,100960.19
2023-05-18T22:04:35.141Z,100964.38
2023-05-18T22:07:38.532Z,100958.34
2023-05-18T22:10:40.391Z,100954.03
2023-05-18T22:13:43.777Z,100957.09
2023-05-18T22:16:45.777Z,100954.66
2023-05-18T22:19:48.374Z,100961.19
2023-05-18T22:22:51.565Z,100958.13
2023-05-18T22:25:53.412Z,100961.09
2023-05-18T22:28:55.209Z,100958.09
2023-05-18T22:31:57.041Z,100950.88
2023-05-18T22:34:59.969Z,100955.28
2023-05-18T22:38:03.275Z,100950.06
2023-05-18T22:41:05.142Z,100949.34
2023-05-18T22:44:07.207Z,100947.31
2023-05-18T22:47:09.460Z,100942.94
2023-05-18T22:50:11.388Z,100941.41
2023-05-18T22:53:14.653Z,100947.97
2023-05-18T22:56:17.279Z,100939.28
2023-05-18T22:59:21.249Z,100941.41
2023-05-18T23:02:23.069Z,100940.94
2023-05-18T23:05:25.193Z,100936.50
2023-05-18T23:08:28.483Z,100942.63
2023-05-18T23:11:30.935Z,100946.84
2023-05-18T23:14:33.781Z,100939.69
2023-05-18T23:17:38.980Z,100948.22
2023-05-18T23:20:41.942Z,100938.41
2023-05-18T23:23:45.647Z,100941.03
2023-05-18T23:26:47.505Z,100939.31
2023-05-18T23:29:49.320Z,100934.06
2023-05-18T23:32:52.875Z,100935.81
2023-05-18T23:35:59.102Z,100933.47
2023-05-18T23:39:02.847Z,100934.53
2023-05-18T23:42:05.303Z,100936.75
2023-05-18T23:45:08.779Z,100931.19
2023-05-18T23:48:11.663Z,100933.94
2023-05-18T23:51:21.908Z,100933.19
2023-05-18T23:54:25.649Z,100924.06
2023-05-18T23:57:28.275Z,100925.16
